createdAt,value
2022-10-02T00:00:10.708Z,96.30
2022-10-02T00:03:06.344Z,96.00
2022-10-02T00:05:42.314Z,96.20
2022-10-02T00:08:25.730Z,96.30
2022-10-02T00:11:00.359Z,96.20
2022-10-02T00:13:35.033Z,96.10
2022-10-02T00:16:05.068Z,96.20
2022-10-02T00:18:37.187Z,95.90
2022-10-02T00:21:46.053Z,96.00
2022-10-02T00:24:19.066Z,95.90
2022-10-02T00:26:47.708Z,95.90
2022-10-02T00:29:38.801Z,96.00
2022-10-02T00:32:14.469Z,96.00
2022-10-02T00:34:54.051Z,96.00
2022-10-02T00:38:05.062Z,95.80
2022-10-02T00:41:11.181Z,95.90
2022-10-02T00:43:51.983Z,96.10
2022-10-02T00:46:32.102Z,95.60
2022-10-02T00:49:20.677Z,95.80
2022-10-02T00:52:12.098Z,95.70
2022-10-02T00:55:18.706Z,95.80
2022-10-02T00:57:55.464Z,95.80
2022-10-02T01:00:23.243Z,95.80
2022-10-02T01:03:08.624Z,95.60
2022-10-02T01:05:36.485Z,95.70
2022-10-02T01:08:03.622Z,95.80
2022-10-02T01:10:31.146Z,95.70
2022-10-02T01:12:59.181Z,95.60
2022-10-02T01:15:52.938Z,95.60
2022-10-02T01:18:20.184Z,95.70
2022-10-02T01:20:50.283Z,95.70
2022-10-02T01:23:46.860Z,95.70
2022-10-02T01:26:14.002Z,95.70
2022-10-02T01:28:41.906Z,95.70
2022-10-02T01:31:10.606Z,95.70
2022-10-02T01:33:41.391Z,95.70
2022-10-02T01:36:13.057Z,95.70
2022-10-02T01:38:41.413Z,95.60
2022-10-02T01:41:11.484Z,95.60
2022-10-02T01:44:04.545Z,95.60
2022-10-02T01:46:35.194Z,95.60
2022-10-02T01:49:39.390Z,95.50
2022-10-02T01:52:36.570Z,95.60
2022-10-02T01:55:35.958Z,95.50
2022-10-02T01:58:23.662Z,95.50
2022-10-02T02:01:03.658Z,95.50
2022-10-02T02:03:39.607Z,95.60
2022-10-02T02:06:06.546Z,95.50
2022-10-02T02:09:05.635Z,95.50
2022-10-02T02:11:35.060Z,95.40
2022-10-02T02:14:26.341Z,95.60
2022-10-02T02:17:01.015Z,95.50
2022-10-02T02:20:02.061Z,95.50
2022-10-02T02:22:33.392Z,95.50
2022-10-02T02:25:11.782Z,95.50
2022-10-02T02:27:43.002Z,95.50
2022-10-02T02:30:14.049Z,95.40
2022-10-02T02:32:46.938Z,95.10
2022-10-02T02:35:27.420Z,95.50
2022-10-02T02:38:01.857Z,95.30
2022-10-02T02:40:31.445Z,95.40
2022-10-02T02:43:11.020Z,95.40
2022-10-02T02:45:58.717Z,95.20
2022-10-02T02:48:37.183Z,95.20
2022-10-02T02:51:16.846Z,95.30
2022-10-02T02:53:50.936Z,95.30
2022-10-02T02:56:19.282Z,95.20
2022-10-02T02:59:05.097Z,95.10
2022-10-02T03:01:32.045Z,95.20
2022-10-02T03:03:58.909Z,95.20
2022-10-02T03:06:46.783Z,95.20
2022-10-02T03:09:16.854Z,95.30
2022-10-02T03:11:46.973Z,95.20
2022-10-02T03:14:35.497Z,95.20
2022-10-02T03:17:29.153Z,95.20
2022-10-02T03:20:33.591Z,95.20
2022-10-02T03:23:25.636Z,95.10
2022-10-02T03:26:08.449Z,95.10
2022-10-02T03:29:02.895Z,95.20
2022-10-02T03:31:32.462Z,95.20
2022-10-02T03:34:02.161Z,95.00
2022-10-02T03:36:29.652Z,95.00
2022-10-02T03:39:23.276Z,95.10
2022-10-02T03:41:46.655Z,95.10
2022-10-02T03:44:13.488Z,95.00
2022-10-02T03:46:40.472Z,94.90
2022-10-02T03:49:07.562Z,95.00
2022-10-02T03:51:34.262Z,95.00
2022-10-02T03:54:01.055Z,95.00
2022-10-02T03:56:40.509Z,95.00
2022-10-02T03:59:15.813Z,95.10
2022-10-02T04:01:49.278Z,95.00
2022-10-02T04:04:23.343Z,95.00
2022-10-02T04:07:06.344Z,94.90
2022-10-02T04:09:43.785Z,94.90
2022-10-02T04:12:17.179Z,94.80
2022-10-02T04:15:16.461Z,94.80
2022-10-02T04:17:59.508Z,94.80
2022-10-02T04:20:35.227Z,94.80
2022-10-02T04:23:28.400Z,94.70
2022-10-02T04:26:33.415Z,94.70
2022-10-02T04:29:24.417Z,94.70
2022-10-02T04:32:12.911Z,94.70
2022-10-02T04:34:40.694Z,94.60
2022-10-02T04:37:13.249Z,94.70
2022-10-02T04:40:06.573Z,94.80
2022-10-02T04:42:43.486Z,94.50
2022-10-02T04:45:30.657Z,94.60
2022-10-02T04:48:37.206Z,94.70
2022-10-02T04:51:30.985Z,94.80
2022-10-02T04:54:04.372Z,94.60
2022-10-02T04:57:16.072Z,94.60
2022-10-02T05:00:01.658Z,94.60
2022-10-02T05:02:37.496Z,94.80
2022-10-02T05:05:13.293Z,94.70
2022-10-02T05:07:58.678Z,94.60
2022-10-02T05:10:37.581Z,94.60
2022-10-02T05:13:27.437Z,94.60
2022-10-02T05:16:19.192Z,94.60
2022-10-02T05:19:27.101Z,94.60
2022-10-02T05:22:03.968Z,94.50
2022-10-02T05:24:46.675Z,94.50
2022-10-02T05:27:39.282Z,94.50
2022-10-02T05:30:09.878Z,94.50
2022-10-02T05:33:00.299Z,94.40
2022-10-02T05:35:31.829Z,94.40
2022-10-02T05:38:18.679Z,94.30
2022-10-02T05:41:03.168Z,94.30
2022-10-02T05:43:36.405Z,94.30
2022-10-02T05:46:18.964Z,94.40
2022-10-02T05:48:52.829Z,94.30
2022-10-02T05:51:59.636Z,94.20
2022-10-02T05:54:52.716Z,94.30
2022-10-02T05:57:36.366Z,94.20
2022-10-02T06:00:24.802Z,94.20
2022-10-02T06:03:00.591Z,94.20
2022-10-02T06:05:33.124Z,94.20
2022-10-02T06:08:03.893Z,94.10
2022-10-02T06:10:43.453Z,94.20
2022-10-02T06:13:27.512Z,94.30
2022-10-02T06:15:59.966Z,94.30
2022-10-02T06:18:31.553Z,94.20
2022-10-02T06:21:05.172Z,94.20
2022-10-02T06:23:34.271Z,94.10
2022-10-02T06:26:12.719Z,94.00
2022-10-02T06:28:53.213Z,93.70
2022-10-02T06:31:35.110Z,93.30
2022-10-02T06:34:01.912Z,92.90
2022-10-02T06:36:40.576Z,92.60
2022-10-02T06:39:31.932Z,92.40
2022-10-02T06:42:28.355Z,92.30
2022-10-02T06:45:19.558Z,92.10
2022-10-02T06:47:58.252Z,92.00
2022-10-02T06:50:44.457Z,92.10
2022-10-02T06:53:20.569Z,92.10
2022-10-02T06:56:07.871Z,92.10
2022-10-02T06:59:04.578Z,92.10
2022-10-02T07:01:40.321Z,92.10
2022-10-02T07:04:19.073Z,91.90
2022-10-02T07:06:51.432Z,91.90
2022-10-02T07:09:26.889Z,91.90
2022-10-02T07:12:08.362Z,91.90
2022-10-02T07:15:00.397Z,91.80
2022-10-02T07:17:50.890Z,91.70
2022-10-02T07:20:40.338Z,91.60
2022-10-02T07:23:21.603Z,91.40
2022-10-02T07:26:35.086Z,91.50
2022-10-02T07:29:38.293Z,91.10
2022-10-02T07:32:11.776Z,91.10
2022-10-02T07:35:05.106Z,91.10
2022-10-02T07:37:31.774Z,91.00
2022-10-02T07:40:31.681Z,90.70
2022-10-02T07:43:16.451Z,90.80
2022-10-02T07:46:00.590Z,90.80
2022-10-02T07:48:50.288Z,90.60
2022-10-02T07:51:47.386Z,90.30
2022-10-02T07:54:38.604Z,90.20
2022-10-02T07:57:15.842Z,90.10
2022-10-02T07:59:44.538Z,90.10
2022-10-02T08:02:24.971Z,90.20
2022-10-02T08:04:57.675Z,90.20
2022-10-02T08:07:24.783Z,90.00
2022-10-02T08:09:53.704Z,89.80
2022-10-02T08:13:00.112Z,90.00
2022-10-02T08:15:33.469Z,89.70
2022-10-02T08:18:30.225Z,88.90
2022-10-02T08:20:56.749Z,87.90
2022-10-02T08:23:39.520Z,86.70
2022-10-02T08:26:16.777Z,87.20
2022-10-02T08:29:01.500Z,88.00
2022-10-02T08:31:28.414Z,88.50
2022-10-02T08:33:57.461Z,89.30
2022-10-02T08:36:28.462Z,90.10
2022-10-02T08:39:03.140Z,90.50
2022-10-02T08:41:45.089Z,90.70
2022-10-02T08:44:46.548Z,90.80
2022-10-02T08:47:30.180Z,90.60
2022-10-02T08:50:24.211Z,90.60
2022-10-02T08:53:09.817Z,90.70
2022-10-02T08:56:03.391Z,91.10
2022-10-02T08:59:01.341Z,91.10
2022-10-02T09:02:00.051Z,91.40
2022-10-02T09:05:12.968Z,91.30
2022-10-02T09:08:09.692Z,91.30
2022-10-02T09:11:04.039Z,91.40
2022-10-02T09:14:02.714Z,91.40
2022-10-02T09:16:44.643Z,91.30
2022-10-02T09:19:32.674Z,91.40
2022-10-02T09:22:11.409Z,91.40
2022-10-02T09:25:32.397Z,91.40
2022-10-02T09:28:38.234Z,91.40
2022-10-02T09:31:26.670Z,91.40
2022-10-02T09:34:32.164Z,91.50
2022-10-02T09:37:13.383Z,91.40
2022-10-02T09:39:51.449Z,90.70
2022-10-02T09:42:49.877Z,90.90
2022-10-02T09:45:41.993Z,91.00
2022-10-02T09:48:53.289Z,91.00
2022-10-02T09:51:42.423Z,91.00
2022-10-02T09:54:13.587Z,91.00
2022-10-02T09:56:45.603Z,90.90
2022-10-02T09:59:33.778Z,90.90
2022-10-02T10:02:26.017Z,90.80
2022-10-02T10:05:19.318Z,91.10
2022-10-02T10:07:45.957Z,91.10
2022-10-02T10:10:41.488Z,91.20
2022-10-02T10:13:32.725Z,91.10
2022-10-02T10:16:33.494Z,91.20
2022-10-02T10:19:33.950Z,91.30
2022-10-02T10:22:27.674Z,91.30
2022-10-02T10:25:28.368Z,91.40
2022-10-02T10:28:23.852Z,91.40
2022-10-02T10:31:28.877Z,91.20
2022-10-02T10:34:19.794Z,91.20
2022-10-02T10:37:22.188Z,91.30
2022-10-02T10:40:04.025Z,91.50
2022-10-02T10:43:16.582Z,91.40
2022-10-02T10:46:20.642Z,91.30
2022-10-02T10:49:20.780Z,91.40
2022-10-02T10:52:13.937Z,91.30
2022-10-02T10:54:52.726Z,91.30
2022-10-02T10:57:54.354Z,91.40
2022-10-02T11:00:26.578Z,91.40
2022-10-02T11:03:08.831Z,91.40
2022-10-02T11:05:53.423Z,91.40
2022-10-02T11:08:43.298Z,91.50
2022-10-02T11:11:39.430Z,91.40
2022-10-02T11:15:14.910Z,91.40
2022-10-02T11:18:00.852Z,91.50
2022-10-02T11:20:57.009Z,91.60
2022-10-02T11:24:01.989Z,91.60
2022-10-02T11:26:41.041Z,91.50
2022-10-02T11:29:22.584Z,91.60
2022-10-02T11:32:10.226Z,91.60
2022-10-02T11:35:18.334Z,91.60
2022-10-02T11:38:23.422Z,91.70
2022-10-02T11:41:04.371Z,91.50
2022-10-02T11:43:44.123Z,91.70
2022-10-02T11:46:36.990Z,91.60
2022-10-02T11:49:20.264Z,91.60
2022-10-02T11:51:56.166Z,91.60
2022-10-02T11:54:51.122Z,91.50
2022-10-02T11:57:33.080Z,91.40
2022-10-02T12:00:29.919Z,91.70
2022-10-02T12:03:06.338Z,91.50
2022-10-02T12:05:53.435Z,91.80
2022-10-02T12:08:34.372Z,91.60
2022-10-02T12:11:34.548Z,91.50
2022-10-02T12:14:23.594Z,91.50
2022-10-02T12:17:11.206Z,91.60
2022-10-02T12:20:23.717Z,91.60
2022-10-02T12:23:50.486Z,91.60
2022-10-02T12:27:08.046Z,91.60
2022-10-02T12:29:41.876Z,91.50
2022-10-02T12:32:37.469Z,91.50
2022-10-02T12:35:41.293Z,91.50
2022-10-02T12:38:28.644Z,91.40
2022-10-02T12:41:17.558Z,91.50
2022-10-02T12:44:03.260Z,91.40
2022-10-02T12:46:59.554Z,91.50
2022-10-02T12:49:48.090Z,91.50
2022-10-02T12:52:28.570Z,91.50
2022-10-02T12:55:51.994Z,91.50
2022-10-02T12:58:31.336Z,91.40
2022-10-02T13:01:23.069Z,91.50
2022-10-02T13:04:28.105Z,91.50
2022-10-02T13:06:54.775Z,91.40
2022-10-02T13:09:31.372Z,91.50
2022-10-02T13:12:32.705Z,91.50
2022-10-02T13:15:03.346Z,91.40
2022-10-02T13:17:41.808Z,91.40
2022-10-02T13:20:45.698Z,91.40
2022-10-02T13:23:21.965Z,91.30
2022-10-02T13:26:29.753Z,91.40
2022-10-02T13:29:20.519Z,91.40
2022-10-02T13:32:19.989Z,91.40
2022-10-02T13:35:14.585Z,91.40
2022-10-02T13:38:17.641Z,91.40
2022-10-02T13:40:48.878Z,91.50
2022-10-02T13:43:24.305Z,91.30
2022-10-02T13:45:57.410Z,91.10
2022-10-02T13:49:18.728Z,91.00
2022-10-02T13:52:20.586Z,90.60
2022-10-02T13:55:11.702Z,90.20
2022-10-02T13:58:12.125Z,89.50
2022-10-02T14:00:39.358Z,87.90
2022-10-02T14:03:17.903Z,86.80
2022-10-02T14:05:59.030Z,86.70
2022-10-02T14:08:34.501Z,87.30
2022-10-02T14:11:01.203Z,86.60
2022-10-02T14:14:16.329Z,86.80
2022-10-02T14:17:12.339Z,85.60
2022-10-02T14:19:52.523Z,85.70
2022-10-02T14:22:40.820Z,85.40
2022-10-02T14:25:29.099Z,85.00
2022-10-02T14:28:07.856Z,85.70
2022-10-02T14:30:52.787Z,86.10
2022-10-02T14:33:43.137Z,86.40
2022-10-02T14:36:42.378Z,86.00
2022-10-02T14:39:09.591Z,86.70
2022-10-02T14:41:55.322Z,84.80
2022-10-02T14:44:39.783Z,84.90
2022-10-02T14:47:31.592Z,84.80
2022-10-02T14:50:23.469Z,85.00
2022-10-02T14:53:05.115Z,85.20
2022-10-02T14:55:50.064Z,85.40
2022-10-02T14:58:34.332Z,85.80
2022-10-02T15:01:10.742Z,85.80
2022-10-02T15:03:43.998Z,86.00
2022-10-02T15:06:40.723Z,86.60
2022-10-02T15:09:15.982Z,87.30
2022-10-02T15:11:42.780Z,88.30
2022-10-02T15:14:51.839Z,88.50
2022-10-02T15:17:56.720Z,88.80
2022-10-02T15:21:01.647Z,88.80
2022-10-02T15:23:50.681Z,89.00
2022-10-02T15:26:44.459Z,89.60
2022-10-02T15:29:36.173Z,89.40
2022-10-02T15:32:23.838Z,89.60
2022-10-02T15:35:08.126Z,89.90
2022-10-02T15:38:08.444Z,89.90
2022-10-02T15:40:47.411Z,90.20
2022-10-02T15:43:16.864Z,90.20
2022-10-02T15:45:56.896Z,90.40
2022-10-02T15:48:56.766Z,90.60
2022-10-02T15:52:00.926Z,90.70
2022-10-02T15:54:46.022Z,90.70
2022-10-02T15:57:22.346Z,90.80
2022-10-02T16:00:08.352Z,90.70
2022-10-02T16:02:58.486Z,90.80
2022-10-02T16:06:25.756Z,90.70
2022-10-02T16:09:22.081Z,90.70
2022-10-02T16:12:09.500Z,90.80
2022-10-02T16:14:36.167Z,90.90
2022-10-02T16:17:14.023Z,90.90
2022-10-02T16:20:25.240Z,90.90
2022-10-02T16:23:03.851Z,90.80
2022-10-02T16:25:49.328Z,90.80
2022-10-02T16:28:24.820Z,90.80
2022-10-02T16:30:51.682Z,90.80
2022-10-02T16:33:27.267Z,90.90
2022-10-02T16:36:30.057Z,90.90
2022-10-02T16:39:43.595Z,90.90
2022-10-02T16:42:37.308Z,90.90
2022-10-02T16:45:29.604Z,90.90
2022-10-02T16:48:13.974Z,91.00
2022-10-02T16:50:59.231Z,91.00
2022-10-02T16:53:31.169Z,90.90
2022-10-02T16:56:33.907Z,90.90
2022-10-02T16:59:30.373Z,91.00
2022-10-02T17:02:28.005Z,91.10
2022-10-02T17:05:16.719Z,91.00
2022-10-02T17:08:15.036Z,90.90
2022-10-02T17:10:44.839Z,90.90
2022-10-02T17:13:27.155Z,91.00
2022-10-02T17:16:02.937Z,91.00
2022-10-02T17:19:00.018Z,90.90
2022-10-02T17:21:50.109Z,90.90
2022-10-02T17:24:32.306Z,91.00
2022-10-02T17:27:34.203Z,90.90
2022-10-02T17:30:13.439Z,90.90
2022-10-02T17:32:46.237Z,90.90
2022-10-02T17:35:29.364Z,91.00
2022-10-02T17:38:05.962Z,91.00
2022-10-02T17:40:58.781Z,91.00
2022-10-02T17:43:35.157Z,91.10
2022-10-02T17:46:20.076Z,91.00
2022-10-02T17:49:12.968Z,91.00
2022-10-02T17:52:22.651Z,91.10
2022-10-02T17:55:34.371Z,91.30
2022-10-02T17:58:25.781Z,91.40
2022-10-02T18:01:19.881Z,91.20
2022-10-02T18:04:28.325Z,91.30
2022-10-02T18:07:06.865Z,91.40
2022-10-02T18:09:36.535Z,91.30
2022-10-02T18:12:12.077Z,91.30
2022-10-02T18:14:57.332Z,91.30
2022-10-02T18:17:53.027Z,91.10
2022-10-02T18:20:35.309Z,91.30
2022-10-02T18:23:23.298Z,91.20
2022-10-02T18:26:02.553Z,91.30
2022-10-02T18:29:05.738Z,91.30
2022-10-02T18:31:55.789Z,91.40
2022-10-02T18:34:40.229Z,91.50
2022-10-02T18:37:47.659Z,91.30
2022-10-02T18:40:25.015Z,91.30
2022-10-02T18:43:22.761Z,91.30
2022-10-02T18:46:04.539Z,91.30
2022-10-02T18:48:46.110Z,91.20
2022-10-02T18:51:32.837Z,91.40
2022-10-02T18:54:37.048Z,91.30
2022-10-02T18:57:16.229Z,91.40
2022-10-02T19:00:08.065Z,91.20
2022-10-02T19:02:37.886Z,91.40
2022-10-02T19:05:28.523Z,91.40
2022-10-02T19:08:04.186Z,91.50
2022-10-02T19:10:30.893Z,91.50
2022-10-02T19:13:18.115Z,91.40
2022-10-02T19:15:48.379Z,91.40
2022-10-02T19:18:27.285Z,91.70
2022-10-02T19:21:15.914Z,91.60
2022-10-02T19:24:02.694Z,91.60
2022-10-02T19:26:54.555Z,91.50
2022-10-02T19:29:38.070Z,91.50
2022-10-02T19:32:21.452Z,91.50
2022-10-02T19:35:03.856Z,91.50
2022-10-02T19:37:32.294Z,91.50
2022-10-02T19:40:03.485Z,91.50
2022-10-02T19:42:36.518Z,91.40
2022-10-02T19:45:07.777Z,91.50
2022-10-02T19:47:50.010Z,91.50
2022-10-02T19:50:37.920Z,91.60
2022-10-02T19:53:15.852Z,91.70
2022-10-02T19:55:43.777Z,91.70
2022-10-02T19:58:21.815Z,91.70
2022-10-02T20:00:53.369Z,91.70
2022-10-02T20:03:22.378Z,91.60
2022-10-02T20:05:56.713Z,91.60
2022-10-02T20:08:28.686Z,91.60
2022-10-02T20:11:09.233Z,91.70
2022-10-02T20:13:49.924Z,91.50
2022-10-02T20:16:41.703Z,91.50
2022-10-02T20:19:45.166Z,91.60
2022-10-02T20:22:30.461Z,91.50
2022-10-02T20:25:06.497Z,91.50
2022-10-02T20:27:44.107Z,91.50
2022-10-02T20:30:18.155Z,91.50
2022-10-02T20:33:07.198Z,91.40
2022-10-02T20:35:47.997Z,91.50
2022-10-02T20:38:23.737Z,91.40
2022-10-02T20:40:53.369Z,91.60
2022-10-02T20:43:26.543Z,91.50
2022-10-02T20:46:26.386Z,91.40
2022-10-02T20:49:08.966Z,91.40
2022-10-02T20:52:07.338Z,91.50
2022-10-02T20:54:51.505Z,91.40
2022-10-02T20:57:49.660Z,91.40
2022-10-02T21:00:22.065Z,91.40
2022-10-02T21:03:10.191Z,91.40
2022-10-02T21:05:52.544Z,91.30
2022-10-02T21:09:01.136Z,91.40
2022-10-02T21:11:27.863Z,91.40
2022-10-02T21:14:10.262Z,91.40
2022-10-02T21:17:14.241Z,91.40
2022-10-02T21:20:01.465Z,91.50
2022-10-02T21:23:16.551Z,91.40
2022-10-02T21:25:46.284Z,91.40
2022-10-02T21:28:28.190Z,91.50
2022-10-02T21:31:01.080Z,91.50
2022-10-02T21:33:38.032Z,91.60
2022-10-02T21:36:18.391Z,91.40
2022-10-02T21:38:48.551Z,91.50
2022-10-02T21:41:58.258Z,91.40
2022-10-02T21:44:36.772Z,91.40
2022-10-02T21:47:19.080Z,91.30
2022-10-02T21:49:54.799Z,91.30
2022-10-02T21:52:39.975Z,91.30
2022-10-02T21:55:47.564Z,91.30
2022-10-02T21:58:46.906Z,91.30
2022-10-02T22:02:07.244Z,91.30
2022-10-02T22:04:53.459Z,91.30
2022-10-02T22:07:44.134Z,91.30
2022-10-02T22:10:32.015Z,91.30
2022-10-02T22:13:36.914Z,91.30
2022-10-02T22:16:26.888Z,91.20
2022-10-02T22:19:18.936Z,91.30
2022-10-02T22:21:57.829Z,91.30
2022-10-02T22:24:45.809Z,91.30
2022-10-02T22:27:12.475Z,91.20
2022-10-02T22:29:51.141Z,91.30
2022-10-02T22:33:10.122Z,91.20
2022-10-02T22:36:02.949Z,91.20
2022-10-02T22:38:42.617Z,91.20
2022-10-02T22:41:20.826Z,91.20
2022-10-02T22:43:56.822Z,91.20
2022-10-02T22:46:46.861Z,91.20
2022-10-02T22:49:36.310Z,91.20
2022-10-02T22:52:25.279Z,91.20
2022-10-02T22:55:15.657Z,91.10
2022-10-02T22:57:57.225Z,91.30
2022-10-02T23:00:27.689Z,91.20
2022-10-02T23:03:12.890Z,91.30
2022-10-02T23:05:52.933Z,91.20
2022-10-02T23:08:38.777Z,91.20
2022-10-02T23:11:23.929Z,91.20
2022-10-02T23:13:58.451Z,91.30
2022-10-02T23:16:42.774Z,91.40
2022-10-02T23:19:22.362Z,91.10
2022-10-02T23:22:07.865Z,91.20
2022-10-02T23:25:04.438Z,91.20
2022-10-02T23:27:51.338Z,91.20
2022-10-02T23:30:20.632Z,91.20
2022-10-02T23:32:57.764Z,91.10
2022-10-02T23:35:37.113Z,90.80
2022-10-02T23:38:23.825Z,91.10
2022-10-02T23:41:21.037Z,91.10
2022-10-02T23:44:17.351Z,91.20
2022-10-02T23:46:49.799Z,91.10
2022-10-02T23:49:19.594Z,91.20
2022-10-02T23:52:24.241Z,91.10
2022-10-02T23:55:14.391Z,91.20
2022-10-02T23:57:53.536Z,91.10
